Lady Begum — V7SA8 — position and weather

sailwx.info

Track history (hours):
 
Tides and Currents Weather Stations Pressure Air Temp Water Temp Dewpoint Dewpoint Depression Visibility Wind Speed Wind Dir Waves Ship Positions

Lady Begum

Last reported at 2018-Apr-24 18:30 UTC. Time now 2018-Apr-24 18:34 UTC.
Position N 54°24' E 018°41'.

Length 179 m; draft 6.4 m.

Type: Ship. MMSI: 538006850.

Date/timePositionNaut miles runAvg speedWind from/ knotsBaromVisibWave heightAir tempDewpointWater temp
2018-Apr-24 18:30N 54°24' E 018°41'0 0.0
2018-Apr-24 18:00N 54°24' E 018°41'0 0.0
2018-Apr-24 17:30N 54°24' E 018°41'0 0.0
2018-Apr-24 17:00N 54°24' E 018°41'0 0.0
2018-Apr-24 16:30N 54°24' E 018°41'0 0.0
2018-Apr-24 16:00N 54°24' E 018°41'0 0.0
2018-Apr-24 15:30N 54°24' E 018°41'0 0.0
2018-Apr-24 15:00N 54°24' E 018°41'0 0.0
2018-Apr-24 14:30N 54°24' E 018°41'0 0.0
2018-Apr-24 14:00N 54°24' E 018°41'0 0.0
2018-Apr-24 13:30N 54°24' E 018°41'0 0.0
2018-Apr-24 13:00N 54°24' E 018°41'0 0.0
2018-Apr-24 12:30N 54°24' E 018°41'0 0.0
2018-Apr-24 12:00N 54°24' E 018°41'0 0.0
2018-Apr-24 11:30N 54°24' E 018°41'0 0.0
2018-Apr-24 11:00N 54°24' E 018°41'0 0.0
2018-Apr-24 10:30N 54°24' E 018°41'0 0.0
2018-Apr-24 10:00N 54°24' E 018°41'0 0.0
2018-Apr-24 09:30N 54°24' E 018°41'0 0.0
2018-Apr-24 09:00N 54°24' E 018°41'0 0.0
2018-Apr-24 08:30N 54°24' E 018°41'0 0.0
2018-Apr-24 08:00N 54°24' E 018°41'0 0.0
2018-Apr-24 07:30N 54°24' E 018°41'0 0.0
2018-Apr-24 07:00N 54°24' E 018°41'0 0.0
2018-Apr-24 06:30N 54°24' E 018°41'0 0.0
2018-Apr-24 06:00N 54°24' E 018°41'0 0.0
2018-Apr-24 05:30N 54°24' E 018°41'0 0.0
2018-Apr-24 05:00N 54°24' E 018°41'0 0.0
2018-Apr-24 04:30N 54°24' E 018°41'0 0.0
2018-Apr-24 04:00N 54°24' E 018°41'0 0.0
2018-Apr-24 03:30N 54°24' E 018°41'0 0.0
2018-Apr-24 03:00N 54°24' E 018°41'0 0.0
2018-Apr-24 02:30N 54°24' E 018°41'0 0.0
2018-Apr-24 02:00N 54°24' E 018°41'0 0.0
2018-Apr-24 01:30N 54°24' E 018°41'0 0.0
2018-Apr-24 01:00N 54°24' E 018°41'0 0.0
2018-Apr-24 00:30N 54°24' E 018°41'0 0.0
2018-Apr-24 00:00N 54°24' E 018°41'0 0.0
2018-Apr-23 23:30N 54°24' E 018°41'0 0.0
2018-Apr-23 23:00N 54°24' E 018°41'0 0.0
2018-Apr-23 22:30N 54°24' E 018°41'0 0.0
2018-Apr-23 22:00N 54°24' E 018°41'0 0.0
2018-Apr-23 21:30N 54°24' E 018°41'1 2.0
2018-Apr-23 21:00N 54°25' E 018°40'3 5.7
2018-Apr-23 20:30N 54°27' E 018°40'1 1.4
2018-Apr-23 20:00N 54°28' E 018°41'0 0.6
2018-Apr-23 19:30N 54°28' E 018°41'0 0.0
2018-Apr-23 19:00N 54°28' E 018°41'0 0.0
2018-Apr-23 18:30N 54°28' E 018°41'0 0.0
2018-Apr-23 18:00N 54°28' E 018°41'0 0.0
2018-Apr-23 17:30N 54°28' E 018°41'0 0.0
2018-Apr-23 17:00N 54°28' E 018°41'0 0.2
2018-Apr-23 16:30N 54°28' E 018°41'0 0.1
2018-Apr-23 16:00N 54°28' E 018°41'0 0.3
2018-Apr-23 15:30N 54°28' E 018°41'0 0.3
2018-Apr-23 15:00N 54°28' E 018°41'0 0.0
2018-Apr-23 14:30N 54°28' E 018°41'0 0.3
2018-Apr-23 14:00N 54°28' E 018°41'2 4.0
2018-Apr-23 13:30N 54°29' E 018°43'4 8.0
2018-Apr-23 13:00N 54°32' E 018°48'612.8
2018-Apr-23 12:30N 54°38' E 018°54'611.9
2018-Apr-23 12:00N 54°42' E 019°01'713.5
2018-Apr-23 11:30N 54°42' E 019°13'713.5
2018-Apr-23 11:00N 54°41' E 019°24'713.7
2018-Apr-23 10:30N 54°40' E 019°36'610.3
2018-Apr-23 09:57N 54°39' E 019°46'0 0.0
2018-Apr-23 09:30N 54°39' E 019°46'0 0.0
2018-Apr-23 09:00N 54°39' E 019°46'0 0.0
2018-Apr-23 08:27N 54°39' E 019°46'0 0.0
2018-Apr-23 07:57N 54°39' E 019°46'0 0.0
2018-Apr-23 07:30N 54°39' E 019°46'0 0.0
2018-Apr-23 07:00N 54°39' E 019°46'0 0.0
2018-Apr-23 06:30N 54°39' E 019°46'0 0.0
2018-Apr-23 06:00N 54°39' E 019°46'0 0.1
2018-Apr-23 05:30N 54°39' E 019°46'0 0.1
2018-Apr-23 04:57N 54°39' E 019°46'0 0.0
2018-Apr-23 04:30N 54°39' E 019°46'0 0.0
2018-Apr-23 03:57N 54°39' E 019°46'0 0.1
2018-Apr-23 03:27N 54°39' E 019°46'0 0.0
2018-Apr-23 03:00N 54°39' E 019°46'0 0.0
2018-Apr-23 02:30N 54°39' E 019°46'0 0.0
2018-Apr-23 02:00N 54°39' E 019°46'0 0.0
2018-Apr-23 01:30N 54°39' E 019°46'0 0.1
2018-Apr-23 01:00N 54°39' E 019°46'0 0.0
2018-Apr-23 00:30N 54°39' E 019°46'0 0.0
2018-Apr-23 00:00N 54°39' E 019°46'0 0.0
2018-Apr-22 23:30N 54°39' E 019°46'0 0.1
2018-Apr-22 23:00N 54°39' E 019°46'0 0.0
2018-Apr-22 22:15N 54°39' E 019°46'0 0.0
2018-Apr-22 21:21N 54°39' E 019°46'0 0.1
2018-Apr-22 21:00N 54°39' E 019°46'0 0.1
2018-Apr-22 20:30N 54°39' E 019°46'0 0.0
2018-Apr-22 20:00N 54°39' E 019°46'0 0.0
2018-Apr-22 19:30N 54°39' E 019°46'0 0.2
2018-Apr-22 18:57N 54°39' E 019°46'0 0.1
2018-Apr-22 18:30N 54°39' E 019°46'0 0.2
2018-Apr-22 18:00N 54°39' E 019°46'0 0.1
2018-Apr-22 17:30N 54°39' E 019°46'0 0.0
2018-Apr-22 17:00N 54°39' E 019°46'0 0.0
2018-Apr-22 16:30N 54°39' E 019°46'0 0.0
2018-Apr-22 16:00N 54°39' E 019°46'0 0.1
2018-Apr-22 15:30N 54°39' E 019°46'0 0.4
2018-Apr-22 15:00N 54°39' E 019°46'2 3.2
2018-Apr-22 14:31N 54°40' E 019°44'510.1
2018-Apr-22 14:00N 54°44' E 019°38'612.9
2018-Apr-22 13:30N 54°50' E 019°37'713.7
2018-Apr-22 13:00N 54°57' E 019°37'713.5
2018-Apr-22 12:30N 55°04' E 019°38'612.9
2018-Apr-22 12:00N 55°10' E 019°42'  
2018-Apr-18 23:32N 55°32' E 019°47'912.8
2018-Apr-18 22:47N 55°31' E 019°30'413.0
2018-Apr-18 22:29N 55°31' E 019°23'712.8
2018-Apr-18 21:58N 55°30' E 019°12'10712.5
2018-Apr-18 13:27N 55°24' E 016°03'612.6
2018-Apr-18 13:00N 55°25' E 015°54'612.8
2018-Apr-18 12:30N 55°25' E 015°43'612.8
2018-Apr-18 12:00N 55°26' E 015°31'612.7
2018-Apr-18 11:30N 55°26' E 015°20'713.2
2018-Apr-18 11:00N 55°25' E 015°09'713.0
2018-Apr-18 10:30N 55°25' E 014°57'612.7
2018-Apr-18 10:00N 55°24' E 014°46'612.1
2018-Apr-18 09:30N 55°22' E 014°36'612.8
2018-Apr-18 09:00N 55°17' E 014°29'713.2
2018-Apr-18 08:30N 55°12' E 014°22'713.3
2018-Apr-18 08:00N 55°07' E 014°14'713.5
2018-Apr-18 07:30N 55°02' E 014°06'5413.3
2018-Apr-18 03:28N 54°43' E 012°38'613.3
2018-Apr-18 03:00N 54°40' E 012°29'613.2
2018-Apr-18 02:30N 54°36' E 012°20'713.2
2018-Apr-18 02:00N 54°30' E 012°16'612.5
2018-Apr-18 01:30N 54°25' E 012°09'813.2
2018-Apr-18 00:54N 54°25' E 011°56'1313.1
2018-Apr-17 23:55N 54°28' E 011°35'613.3
2018-Apr-17 23:30N 54°31' E 011°26'713.2
2018-Apr-17 23:00N 54°34' E 011°16'713.4
2018-Apr-17 22:30N 54°37' E 011°06'612.6
2018-Apr-17 22:00N 54°40' E 010°56'510.9
2018-Apr-17 21:31N 54°45' E 010°52'612.5
2018-Apr-17 21:01N 54°51' E 010°52'612.5
2018-Apr-17 20:30N 54°57' E 010°56'612.4
2018-Apr-17 20:01N 55°02' E 011°01'713.5
2018-Apr-17 19:30N 55°09' E 011°03'612.2
2018-Apr-17 18:59N 55°15' E 011°04'8611.8
2018-Apr-17 11:42N 56°38' E 011°44'313.2
2018-Apr-17 11:28N 56°41' E 011°47'2812.6
2018-Apr-17 09:16N 57°08' E 011°37'512.5
2018-Apr-17 08:51N 57°13' E 011°34'412.7
2018-Apr-17 08:30N 57°17' E 011°31'612.8
2018-Apr-17 08:00N 57°23' E 011°26'612.9
2018-Apr-17 07:31N 57°29' E 011°21'612.6
2018-Apr-17 07:00N 57°33' E 011°13'612.7
2018-Apr-17 06:30N 57°37' E 011°04'612.7
2018-Apr-17 06:01N 57°42' E 010°55'612.8
2018-Apr-17 05:31N 57°46' E 010°47'713.1
2018-Apr-17 05:01N 57°51' E 010°39'612.7
2018-Apr-17 04:31N 57°52' E 010°27'712.6
2018-Apr-17 03:59N 57°51' E 010°15'612.7
2018-Apr-17 03:30N 57°52' E 010°03'712.9
2018-Apr-17 02:59N 57°52' E 009°51'44712.7
2018-Apr-15 15:45N 51°43' E 002°33'622.5
2018-Apr-15 15:29N 51°39' E 002°26'612.4
2018-Apr-15 15:00N 51°34' E 002°20'611.6
2018-Apr-15 14:27N 51°30' E 002°13'714.7
2018-Apr-15 14:01N 51°25' E 002°06'714.9
2018-Apr-15 13:30N 51°19' E 001°58'815.3
2018-Apr-15 13:00N 51°13' E 001°50'815.9
2018-Apr-15 12:31N 51°07' E 001°42'916.2
2018-Apr-15 11:58N 51°00' E 001°33'816.4
2018-Apr-15 11:29N 50°54' E 001°26'816.2
2018-Apr-15 10:59N 50°46' E 001°23'714.8
2018-Apr-15 10:30N 50°40' E 001°18'814.7
2018-Apr-15 09:56N 50°34' E 001°08'614.4
2018-Apr-15 09:30N 50°30' E 001°00'1014.8
2018-Apr-15 08:48N 50°27' E 000°45'1115.1
2018-Apr-15 08:03N 50°23' E 000°28'115.3
2018-Apr-15 07:58N 50°23' E 000°26'715.3
2018-Apr-15 07:30N 50°21' E 000°15'815.0
2018-Apr-15 07:00N 50°19' E 000°04'714.6
2018-Apr-15 06:30N 50°17' W 000°07'714.3
2018-Apr-15 06:00N 50°15' W 000°18'714.0
2018-Apr-15 05:30N 50°14' W 000°28'713.5
2018-Apr-15 05:00N 50°12' W 000°39'712.9
2018-Apr-15 04:29N 50°10' W 000°49'612.1
2018-Apr-15 03:58N 50°09' W 000°58'511.5
2018-Apr-15 03:30N 50°07' W 001°06'510.8
2018-Apr-15 03:00N 50°06' W 001°14'510.1
2018-Apr-15 02:29N 50°05' W 001°22'5 9.7
2018-Apr-15 02:00N 50°04' W 001°29'5 9.2
2018-Apr-15 01:31N 50°02' W 001°36'4 8.9
2018-Apr-15 01:00N 50°01' W 001°43'4 8.9
2018-Apr-15 00:30N 50°01' W 001°50'5 9.3
2018-Apr-15 00:00N 49°60' W 001°57'510.0
2018-Apr-14 23:30N 49°59' W 002°05'611.0
2018-Apr-14 23:00N 49°57' W 002°13'1912.5
2018-Apr-14 21:28N 49°52' W 002°41'2313.3
2018-Apr-14 19:44N 49°42' W 003°14'413.8
2018-Apr-14 19:28N 49°40' W 003°19'  
Track history (hours):
 
Tides and Currents Weather Stations Pressure Air Temp Water Temp Dewpoint Dewpoint Depression Visibility Wind Speed Wind Dir Waves Ship Positions

Lady Begum

Last reported at 2018-Apr-24 18:30 UTC. Time now 2018-Apr-24 18:34 UTC.
Position N 54°24' E 018°41'.

Length 179 m; draft 6.4 m.

Type: Ship. MMSI: 538006850.

Date/timePositionNaut miles runAvg speedWind from/ knotsBaromVisibWave heightAir tempDewpointWater temp
2018-Apr-24 18:30N 54°24' E 018°41'0 0.0
2018-Apr-24 18:00N 54°24' E 018°41'0 0.0
2018-Apr-24 17:30N 54°24' E 018°41'0 0.0
2018-Apr-24 17:00N 54°24' E 018°41'0 0.0
2018-Apr-24 16:30N 54°24' E 018°41'0 0.0
2018-Apr-24 16:00N 54°24' E 018°41'0 0.0
2018-Apr-24 15:30N 54°24' E 018°41'0 0.0
2018-Apr-24 15:00N 54°24' E 018°41'0 0.0
2018-Apr-24 14:30N 54°24' E 018°41'0 0.0
2018-Apr-24 14:00N 54°24' E 018°41'0 0.0
2018-Apr-24 13:30N 54°24' E 018°41'0 0.0
2018-Apr-24 13:00N 54°24' E 018°41'0 0.0
2018-Apr-24 12:30N 54°24' E 018°41'0 0.0
2018-Apr-24 12:00N 54°24' E 018°41'0 0.0
2018-Apr-24 11:30N 54°24' E 018°41'0 0.0
2018-Apr-24 11:00N 54°24' E 018°41'0 0.0
2018-Apr-24 10:30N 54°24' E 018°41'0 0.0
2018-Apr-24 10:00N 54°24' E 018°41'0 0.0
2018-Apr-24 09:30N 54°24' E 018°41'0 0.0
2018-Apr-24 09:00N 54°24' E 018°41'0 0.0
2018-Apr-24 08:30N 54°24' E 018°41'0 0.0
2018-Apr-24 08:00N 54°24' E 018°41'0 0.0
2018-Apr-24 07:30N 54°24' E 018°41'0 0.0
2018-Apr-24 07:00N 54°24' E 018°41'0 0.0
2018-Apr-24 06:30N 54°24' E 018°41'0 0.0
2018-Apr-24 06:00N 54°24' E 018°41'0 0.0
2018-Apr-24 05:30N 54°24' E 018°41'0 0.0
2018-Apr-24 05:00N 54°24' E 018°41'0 0.0
2018-Apr-24 04:30N 54°24' E 018°41'0 0.0
2018-Apr-24 04:00N 54°24' E 018°41'0 0.0
2018-Apr-24 03:30N 54°24' E 018°41'0 0.0
2018-Apr-24 03:00N 54°24' E 018°41'0 0.0
2018-Apr-24 02:30N 54°24' E 018°41'0 0.0
2018-Apr-24 02:00N 54°24' E 018°41'0 0.0
2018-Apr-24 01:30N 54°24' E 018°41'0 0.0
2018-Apr-24 01:00N 54°24' E 018°41'0 0.0
2018-Apr-24 00:30N 54°24' E 018°41'0 0.0
2018-Apr-24 00:00N 54°24' E 018°41'0 0.0
2018-Apr-23 23:30N 54°24' E 018°41'0 0.0
2018-Apr-23 23:00N 54°24' E 018°41'0 0.0
2018-Apr-23 22:30N 54°24' E 018°41'0 0.0
2018-Apr-23 22:00N 54°24' E 018°41'0 0.0
2018-Apr-23 21:30N 54°24' E 018°41'1 2.0
2018-Apr-23 21:00N 54°25' E 018°40'3 5.7
2018-Apr-23 20:30N 54°27' E 018°40'1 1.4
2018-Apr-23 20:00N 54°28' E 018°41'0 0.6
2018-Apr-23 19:30N 54°28' E 018°41'0 0.0
2018-Apr-23 19:00N 54°28' E 018°41'0 0.0
2018-Apr-23 18:30N 54°28' E 018°41'0 0.0
2018-Apr-23 18:00N 54°28' E 018°41'0 0.0
2018-Apr-23 17:30N 54°28' E 018°41'0 0.0
2018-Apr-23 17:00N 54°28' E 018°41'0 0.2
2018-Apr-23 16:30N 54°28' E 018°41'0 0.1
2018-Apr-23 16:00N 54°28' E 018°41'0 0.3
2018-Apr-23 15:30N 54°28' E 018°41'0 0.3
2018-Apr-23 15:00N 54°28' E 018°41'0 0.0
2018-Apr-23 14:30N 54°28' E 018°41'0 0.3
2018-Apr-23 14:00N 54°28' E 018°41'2 4.0
2018-Apr-23 13:30N 54°29' E 018°43'4 8.0
2018-Apr-23 13:00N 54°32' E 018°48'612.8
2018-Apr-23 12:30N 54°38' E 018°54'611.9
2018-Apr-23 12:00N 54°42' E 019°01'713.5
2018-Apr-23 11:30N 54°42' E 019°13'713.5
2018-Apr-23 11:00N 54°41' E 019°24'713.7
2018-Apr-23 10:30N 54°40' E 019°36'610.3
2018-Apr-23 09:57N 54°39' E 019°46'0 0.0
2018-Apr-23 09:30N 54°39' E 019°46'0 0.0
2018-Apr-23 09:00N 54°39' E 019°46'0 0.0
2018-Apr-23 08:27N 54°39' E 019°46'0 0.0
2018-Apr-23 07:57N 54°39' E 019°46'0 0.0
2018-Apr-23 07:30N 54°39' E 019°46'0 0.0
2018-Apr-23 07:00N 54°39' E 019°46'0 0.0
2018-Apr-23 06:30N 54°39' E 019°46'0 0.0
2018-Apr-23 06:00N 54°39' E 019°46'0 0.1
2018-Apr-23 05:30N 54°39' E 019°46'0 0.1
2018-Apr-23 04:57N 54°39' E 019°46'0 0.0
2018-Apr-23 04:30N 54°39' E 019°46'0 0.0
2018-Apr-23 03:57N 54°39' E 019°46'0 0.1
2018-Apr-23 03:27N 54°39' E 019°46'0 0.0
2018-Apr-23 03:00N 54°39' E 019°46'0 0.0
2018-Apr-23 02:30N 54°39' E 019°46'0 0.0
2018-Apr-23 02:00N 54°39' E 019°46'0 0.0
2018-Apr-23 01:30N 54°39' E 019°46'0 0.1
2018-Apr-23 01:00N 54°39' E 019°46'0 0.0
2018-Apr-23 00:30N 54°39' E 019°46'0 0.0
2018-Apr-23 00:00N 54°39' E 019°46'0 0.0
2018-Apr-22 23:30N 54°39' E 019°46'0 0.1
2018-Apr-22 23:00N 54°39' E 019°46'0 0.0
2018-Apr-22 22:15N 54°39' E 019°46'0 0.0
2018-Apr-22 21:21N 54°39' E 019°46'0 0.1
2018-Apr-22 21:00N 54°39' E 019°46'0 0.1
2018-Apr-22 20:30N 54°39' E 019°46'0 0.0
2018-Apr-22 20:00N 54°39' E 019°46'0 0.0
2018-Apr-22 19:30N 54°39' E 019°46'0 0.2
2018-Apr-22 18:57N 54°39' E 019°46'0 0.1
2018-Apr-22 18:30N 54°39' E 019°46'0 0.2
2018-Apr-22 18:00N 54°39' E 019°46'0 0.1
2018-Apr-22 17:30N 54°39' E 019°46'0 0.0
2018-Apr-22 17:00N 54°39' E 019°46'0 0.0
2018-Apr-22 16:30N 54°39' E 019°46'0 0.0
2018-Apr-22 16:00N 54°39' E 019°46'0 0.1
2018-Apr-22 15:30N 54°39' E 019°46'0 0.4
2018-Apr-22 15:00N 54°39' E 019°46'2 3.2
2018-Apr-22 14:31N 54°40' E 019°44'510.1
2018-Apr-22 14:00N 54°44' E 019°38'612.9
2018-Apr-22 13:30N 54°50' E 019°37'713.7
2018-Apr-22 13:00N 54°57' E 019°37'713.5
2018-Apr-22 12:30N 55°04' E 019°38'612.9
2018-Apr-22 12:00N 55°10' E 019°42'  
2018-Apr-18 23:32N 55°32' E 019°47'912.8
2018-Apr-18 22:47N 55°31' E 019°30'413.0
2018-Apr-18 22:29N 55°31' E 019°23'712.8
2018-Apr-18 21:58N 55°30' E 019°12'10712.5
2018-Apr-18 13:27N 55°24' E 016°03'612.6
2018-Apr-18 13:00N 55°25' E 015°54'612.8
2018-Apr-18 12:30N 55°25' E 015°43'612.8
2018-Apr-18 12:00N 55°26' E 015°31'612.7
2018-Apr-18 11:30N 55°26' E 015°20'713.2
2018-Apr-18 11:00N 55°25' E 015°09'713.0
2018-Apr-18 10:30N 55°25' E 014°57'612.7
2018-Apr-18 10:00N 55°24' E 014°46'612.1
2018-Apr-18 09:30N 55°22' E 014°36'612.8
2018-Apr-18 09:00N 55°17' E 014°29'713.2
2018-Apr-18 08:30N 55°12' E 014°22'713.3
2018-Apr-18 08:00N 55°07' E 014°14'713.5
2018-Apr-18 07:30N 55°02' E 014°06'5413.3
2018-Apr-18 03:28N 54°43' E 012°38'613.3
2018-Apr-18 03:00N 54°40' E 012°29'613.2
2018-Apr-18 02:30N 54°36' E 012°20'713.2
2018-Apr-18 02:00N 54°30' E 012°16'612.5
2018-Apr-18 01:30N 54°25' E 012°09'813.2
2018-Apr-18 00:54N 54°25' E 011°56'1313.1
2018-Apr-17 23:55N 54°28' E 011°35'613.3
2018-Apr-17 23:30N 54°31' E 011°26'713.2
2018-Apr-17 23:00N 54°34' E 011°16'713.4
2018-Apr-17 22:30N 54°37' E 011°06'612.6
2018-Apr-17 22:00N 54°40' E 010°56'510.9
2018-Apr-17 21:31N 54°45' E 010°52'612.5
2018-Apr-17 21:01N 54°51' E 010°52'612.5
2018-Apr-17 20:30N 54°57' E 010°56'612.4
2018-Apr-17 20:01N 55°02' E 011°01'713.5
2018-Apr-17 19:30N 55°09' E 011°03'612.2
2018-Apr-17 18:59N 55°15' E 011°04'8611.8
2018-Apr-17 11:42N 56°38' E 011°44'313.2
2018-Apr-17 11:28N 56°41' E 011°47'2812.6
2018-Apr-17 09:16N 57°08' E 011°37'512.5
2018-Apr-17 08:51N 57°13' E 011°34'412.7
2018-Apr-17 08:30N 57°17' E 011°31'612.8
2018-Apr-17 08:00N 57°23' E 011°26'612.9
2018-Apr-17 07:31N 57°29' E 011°21'612.6
2018-Apr-17 07:00N 57°33' E 011°13'612.7
2018-Apr-17 06:30N 57°37' E 011°04'612.7
2018-Apr-17 06:01N 57°42' E 010°55'612.8
2018-Apr-17 05:31N 57°46' E 010°47'713.1
2018-Apr-17 05:01N 57°51' E 010°39'612.7
2018-Apr-17 04:31N 57°52' E 010°27'712.6
2018-Apr-17 03:59N 57°51' E 010°15'612.7
2018-Apr-17 03:30N 57°52' E 010°03'712.9
2018-Apr-17 02:59N 57°52' E 009°51'44712.7
2018-Apr-15 15:45N 51°43' E 002°33'622.5
2018-Apr-15 15:29N 51°39' E 002°26'612.4
2018-Apr-15 15:00N 51°34' E 002°20'611.6
2018-Apr-15 14:27N 51°30' E 002°13'714.7
2018-Apr-15 14:01N 51°25' E 002°06'714.9
2018-Apr-15 13:30N 51°19' E 001°58'815.3
2018-Apr-15 13:00N 51°13' E 001°50'815.9
2018-Apr-15 12:31N 51°07' E 001°42'916.2
2018-Apr-15 11:58N 51°00' E 001°33'816.4
2018-Apr-15 11:29N 50°54' E 001°26'816.2
2018-Apr-15 10:59N 50°46' E 001°23'714.8
2018-Apr-15 10:30N 50°40' E 001°18'814.7
2018-Apr-15 09:56N 50°34' E 001°08'614.4
2018-Apr-15 09:30N 50°30' E 001°00'1014.8
2018-Apr-15 08:48N 50°27' E 000°45'1115.1
2018-Apr-15 08:03N 50°23' E 000°28'115.3
2018-Apr-15 07:58N 50°23' E 000°26'715.3
2018-Apr-15 07:30N 50°21' E 000°15'815.0
2018-Apr-15 07:00N 50°19' E 000°04'714.6
2018-Apr-15 06:30N 50°17' W 000°07'714.3
2018-Apr-15 06:00N 50°15' W 000°18'714.0
2018-Apr-15 05:30N 50°14' W 000°28'713.5
2018-Apr-15 05:00N 50°12' W 000°39'712.9
2018-Apr-15 04:29N 50°10' W 000°49'612.1
2018-Apr-15 03:58N 50°09' W 000°58'511.5
2018-Apr-15 03:30N 50°07' W 001°06'510.8
2018-Apr-15 03:00N 50°06' W 001°14'510.1
2018-Apr-15 02:29N 50°05' W 001°22'5 9.7
2018-Apr-15 02:00N 50°04' W 001°29'5 9.2
2018-Apr-15 01:31N 50°02' W 001°36'4 8.9
2018-Apr-15 01:00N 50°01' W 001°43'4 8.9
2018-Apr-15 00:30N 50°01' W 001°50'5 9.3
2018-Apr-15 00:00N 49°60' W 001°57'510.0
2018-Apr-14 23:30N 49°59' W 002°05'611.0
2018-Apr-14 23:00N 49°57' W 002°13'1912.5
2018-Apr-14 21:28N 49°52' W 002°41'2313.3
2018-Apr-14 19:44N 49°42' W 003°14'413.8
2018-Apr-14 19:28N 49°40' W 003°19'  

Dump ship's entire track history